WetterOnline ( https://www.wetteronline.de )

Wetter aktuell Beeskow

Aktuelles Wetter: Lindenberg b. Beeskow (104m)

6-stündlich | Neueste Meldungen
Ortszeit Temperatur Wetter
Mo, 23.11. 19:00 5.7° C leicht bewölkt
Mo, 23.11. 13:00 8.0° C wolkig
Mo, 23.11. 7:00 5.5° C bewölkt
Mo, 23.11. 1:00 5.7° C wolkig
So, 22.11. 19:00 7.8° C bewölkt
So, 22.11. 13:00 7.9° C bedeckt
So, 22.11. 7:00 6.0° C bedeckt
So, 22.11. 1:00 5.4° C bedeckt
Ortszeit Temperatur Wetter
Mo, 23.11. 23:30 3.7° C wolkenlos
Mo, 23.11. 23:20 3.7° C wolkenlos
Mo, 23.11. 23:10 3.8° C wolkenlos
Mo, 23.11. 23:00 4.2° C leicht bewölkt
Mo, 23.11. 22:50 4.2° C leicht bewölkt
Mo, 23.11. 22:40 4.5° C leicht bewölkt
Mo, 23.11. 22:30 5.1° C bewölkt
Mo, 23.11. 22:00 5.3° C bedeckt
Mo, 23.11. 21:30 5.2° C bedeckt
Mo, 23.11. 21:00 4.9° C wolkig
Mo, 23.11. 20:30 5.1° C wolkenlos
Ortszeit Relative Feuchte Sichtweite
Mo, 23.11. 19:00 80% 40 km
Mo, 23.11. 13:00 70% 40 km
Mo, 23.11. 7:00 90% 24 km
Mo, 23.11. 1:00 93% 23 km
So, 22.11. 19:00 86% 45 km
So, 22.11. 13:00 79% 50 km
So, 22.11. 7:00 71% 50 km
So, 22.11. 1:00 64% 50 km
Ortszeit Relative Feuchte Sichtweite
Mo, 23.11. 23:30 87% 30 km
Mo, 23.11. 23:20 87% -
Mo, 23.11. 23:10 87% -
Mo, 23.11. 23:00 86% 40 km
Mo, 23.11. 22:50 86% -
Mo, 23.11. 22:40 84% -
Mo, 23.11. 22:30 83% 35 km
Mo, 23.11. 22:00 83% 40 km
Mo, 23.11. 21:30 83% 35 km
Mo, 23.11. 21:00 84% 40 km
Mo, 23.11. 20:30 82% 45 km
Ortszeit Niederschlagsmenge Niederschlagsart
Mo, 23.11. 19:00 0.0 l/m2 in 12 Std. -
Mo, 23.11. 13:00 0.0 l/m2 in 6 Std. -
Mo, 23.11. 7:00 0.0 l/m2 in 12 Std. -
Mo, 23.11. 1:00 0.0 l/m2 in 6 Std. -
So, 22.11. 19:00 0.1 l/m2 in 12 Std. Regen
So, 22.11. 13:00 0.1 l/m2 in 6 Std. Regen
So, 22.11. 7:00 0.1 l/m2 in 12 Std. Regen
So, 22.11. 1:00 0.0 l/m2 in 6 Std. -
Ortszeit Niederschlagsmenge Niederschlagsart
Mo, 23.11. 23:30 0.0 l/m2 in 1 Std. -
Mo, 23.11. 23:20 keine Meldung -
Mo, 23.11. 23:10 keine Meldung -
Mo, 23.11. 23:00 0.0 l/m2 in 1 Std. -
Mo, 23.11. 22:50 keine Meldung -
Mo, 23.11. 22:40 keine Meldung -
Mo, 23.11. 22:30 0.0 l/m2 in 1 Std. -
Mo, 23.11. 22:00 0.0 l/m2 in 1 Std. -
Mo, 23.11. 21:30 0.0 l/m2 in 1 Std. -
Mo, 23.11. 21:00 0.0 l/m2 in 1 Std. -
Mo, 23.11. 20:30 0.0 l/m2 in 1 Std. -
Ortszeit Stärke Spitze Richtung
km/h Bft. km/h Grad Sektor
Mo, 23.11. 19:00 14 3 43 250° W
Mo, 23.11. 13:00 25 4 43 270° W
Mo, 23.11. 7:00 17 3 28 260° W
Mo, 23.11. 1:00 11 2 32 240° SW
So, 22.11. 19:00 14 3 36 240° SW
So, 22.11. 13:00 22 4 47 240° SW
So, 22.11. 7:00 22 4 40 220° SW
So, 22.11. 1:00 22 4 43 230° SW
Ortszeit Stärke Spitze Richtung
km/h Bft. km/h Grad Sektor
Mo, 23.11. 23:30 13 3 19 250° W
Mo, 23.11. 23:20 13 3 - 250° W
Mo, 23.11. 23:10 11 2 - 250° W
Mo, 23.11. 23:00 13 3 20 260° W
Mo, 23.11. 22:50 13 3 - 260° W
Mo, 23.11. 22:40 13 3 - 260° W
Mo, 23.11. 22:30 13 3 20 260° W
Mo, 23.11. 22:00 17 3 26 260° W
Mo, 23.11. 21:30 18 3 22 270° W
Mo, 23.11. 21:00 13 3 22 260° W
Mo, 23.11. 20:30 13 3 22 260° W
Ortszeit Untergrenze Bedeckung Gattung
total tief tief mittel hoch
Mo, 23.11. 19:00 870 m 2/8 1/8 - - -
Mo, 23.11. 13:00 690 m 5/8 5/8 - - -
Mo, 23.11. 7:00 660 m 7/8 7/8 - - -
Mo, 23.11. 1:00 1800 m 8/8 3/8 - - -
So, 22.11. 19:00 690 m 7/8 7/8 - - -
So, 22.11. 13:00 510 m 8/8 8/8 - - -
So, 22.11. 7:00 600 m 8/8 8/8 - - -
So, 22.11. 1:00 1050 m 8/8 8/8 - - -
Ortszeit Bedeckungsgrad in Achtel und Wolkenuntergrenze
Mo, 23.11. 23:30 keine Wolken
Mo, 23.11. 23:20 keine Wolken
Mo, 23.11. 23:10 keine Wolken
Mo, 23.11. 23:00 3(1020m)
Mo, 23.11. 22:50 3(1020m)
Mo, 23.11. 22:40 4(1080m)
Mo, 23.11. 22:30 7(1080m)
Mo, 23.11. 22:00 8(1050m)
Mo, 23.11. 21:30 8(1050m)
Mo, 23.11. 21:00 5(1110m)
Mo, 23.11. 20:30 keine Wolken
Ortszeit Luftdruck NN (hPa) Tendenz (hPa in 3 Std.)
Mo, 23.11. 19:00 1028 + 1,5
Mo, 23.11. 13:00 1025 + 0,6
Mo, 23.11. 7:00 1023 + 0,4
Mo, 23.11. 1:00 1023 - 0,4
So, 22.11. 19:00 1023 + 0,7
So, 22.11. 13:00 1022 - 0,9
So, 22.11. 7:00 1023 - 1,1
So, 22.11. 1:00 1025 - 1,0
Ortszeit Luftdruck NN (hPa) Tendenz (hPa in 3 Std.)
Mo, 23.11. 23:30 1029 + 1,0
Mo, 23.11. 23:20 1029 keine Meldung
Mo, 23.11. 23:10 1029 keine Meldung
Mo, 23.11. 23:00 1029 + 0,9
Mo, 23.11. 22:50 1029 keine Meldung
Mo, 23.11. 22:40 1029 keine Meldung
Mo, 23.11. 22:30 1029 + 0,9
Mo, 23.11. 22:00 1029 + 1,5
Mo, 23.11. 21:30 1029 + 1,5
Mo, 23.11. 21:00 1029 + 1,1
Mo, 23.11. 20:30 1028 + 1,1
Ortszeit Schneehöhe (cm)
Mo, 23.11. 19:00 0
Mo, 23.11. 13:00 0
Mo, 23.11. 7:00 0
Mo, 23.11. 1:00 0
So, 22.11. 19:00 0
So, 22.11. 13:00 0
So, 22.11. 7:00 0
So, 22.11. 1:00 0
Ortszeit Schneehöhe (cm)
Mo, 23.11. 23:30 0
Mo, 23.11. 23:20 0
Mo, 23.11. 23:10 0
Mo, 23.11. 23:00 0
Mo, 23.11. 22:50 0
Mo, 23.11. 22:40 0
Mo, 23.11. 22:30 0
Mo, 23.11. 22:00 0
Mo, 23.11. 21:30 0
Mo, 23.11. 21:00 0
Mo, 23.11. 20:30 0
Link zu dieser Seite / Seite empfehlen

Das Wetter in ...